sensor_id;sensor_type;location;lat;lon;timestamp;pressure;altitude;pressure_sealevel;temperature;humidity
66381;BME280;53177;52.648;1.214;2023-06-14T00:00:35;101261.56;;;13.02;93.95
66381;BME280;53177;52.648;1.214;2023-06-14T00:03:02;101258.38;;;12.88;94.44
66381;BME280;53177;52.648;1.214;2023-06-14T00:05:29;101253.09;;;12.87;94.95
66381;BME280;53177;52.648;1.214;2023-06-14T00:07:55;101254.03;;;12.86;94.85
66381;BME280;53177;52.648;1.214;2023-06-14T00:10:21;101251.47;;;12.81;95.21
66381;BME280;53177;52.648;1.214;2023-06-14T00:12:46;101253.16;;;12.85;95.21
66381;BME280;53177;52.648;1.214;2023-06-14T00:15:12;101251.03;;;12.99;94.25
66381;BME280;53177;52.648;1.214;2023-06-14T00:17:37;101258.22;;;12.94;94.49
66381;BME280;53177;52.648;1.214;2023-06-14T00:20:05;101260.00;;;12.94;94.76
66381;BME280;53177;52.648;1.214;2023-06-14T00:22:33;101261.59;;;13.01;93.81
66381;BME280;53177;52.648;1.214;2023-06-14T00:24:59;101258.31;;;12.91;94.74
66381;BME280;53177;52.648;1.214;2023-06-14T00:27:25;101266.25;;;12.91;95.17
66381;BME280;53177;52.648;1.214;2023-06-14T00:29:51;101267.47;;;12.78;95.59
66381;BME280;53177;52.648;1.214;2023-06-14T00:32:17;101270.25;;;12.72;96.69
66381;BME280;53177;52.648;1.214;2023-06-14T00:34:43;101273.91;;;12.66;97.01
66381;BME280;53177;52.648;1.214;2023-06-14T00:37:08;101268.63;;;12.65;97.36
66381;BME280;53177;52.648;1.214;2023-06-14T00:39:33;101271.44;;;12.59;97.85
66381;BME280;53177;52.648;1.214;2023-06-14T00:41:59;101264.44;;;12.55;98.15
66381;BME280;53177;52.648;1.214;2023-06-14T00:44:24;101259.09;;;12.56;98.12
66381;BME280;53177;52.648;1.214;2023-06-14T00:46:50;101260.91;;;12.56;98.27
66381;BME280;53177;52.648;1.214;2023-06-14T00:49:15;101253.78;;;12.56;98.18
66381;BME280;53177;52.648;1.214;2023-06-14T00:51:42;101258.25;;;12.54;98.61
66381;BME280;53177;52.648;1.214;2023-06-14T00:54:08;101253.84;;;12.55;98.96
66381;BME280;53177;52.648;1.214;2023-06-14T00:56:36;101250.28;;;12.56;99.11
66381;BME280;53177;52.648;1.214;2023-06-14T00:59:02;101253.84;;;12.53;99.01
66381;BME280;53177;52.648;1.214;2023-06-14T01:01:28;101250.31;;;12.54;99.02
66381;BME280;53177;52.648;1.214;2023-06-14T01:03:57;101250.47;;;12.48;99.18
66381;BME280;53177;52.648;1.214;2023-06-14T01:09:03;101251.28;;;12.50;99.36
66381;BME280;53177;52.648;1.214;2023-06-14T01:11:38;101252.00;;;12.57;98.78
66381;BME280;53177;52.648;1.214;2023-06-14T01:14:06;101245.88;;;12.55;99.15
66381;BME280;53177;52.648;1.214;2023-06-14T01:16:33;101249.53;;;12.49;99.46
66381;BME280;53177;52.648;1.214;2023-06-14T01:19:01;101254.00;;;12.49;99.39
66381;BME280;53177;52.648;1.214;2023-06-14T01:21:27;101248.69;;;12.47;99.55
66381;BME280;53177;52.648;1.214;2023-06-14T01:23:53;101248.69;;;12.49;99.92
66381;BME280;53177;52.648;1.214;2023-06-14T01:26:23;101242.53;;;12.45;99.80
66381;BME280;53177;52.648;1.214;2023-06-14T01:28:50;101239.94;;;12.44;100.00
66381;BME280;53177;52.648;1.214;2023-06-14T01:31:25;101242.66;;;12.41;100.00
66381;BME280;53177;52.648;1.214;2023-06-14T01:33:51;101247.91;;;12.42;100.00
66381;BME280;53177;52.648;1.214;2023-06-14T01:36:19;101240.91;;;12.40;100.00
66381;BME280;53177;52.648;1.214;2023-06-14T01:38:46;101236.50;;;12.39;100.00
66381;BME280;53177;52.648;1.214;2023-06-14T01:41:14;101239.13;;;12.40;100.00
66381;BME280;53177;52.648;1.214;2023-06-14T01:43:41;101237.38;;;12.39;100.00
66381;BME280;53177;52.648;1.214;2023-06-14T01:46:08;101239.13;;;12.40;100.00
66381;BME280;53177;52.648;1.214;2023-06-14T01:48:34;101233.84;;;12.39;100.00
66381;BME280;53177;52.648;1.214;2023-06-14T01:51:00;101240.13;;;12.35;100.00
66381;BME280;53177;52.648;1.214;2023-06-14T01:53:25;101235.75;;;12.34;100.00
66381;BME280;53177;52.648;1.214;2023-06-14T01:55:51;101241.06;;;12.32;100.00
66381;BME280;53177;52.648;1.214;2023-06-14T01:58:19;101240.19;;;12.33;100.00
66381;BME280;53177;52.648;1.214;2023-06-14T02:00:44;101240.13;;;12.35;100.00
66381;BME280;53177;52.648;1.214;2023-06-14T02:03:11;101233.09;;;12.34;100.00
66381;BME280;53177;52.648;1.214;2023-06-14T02:05:37;101238.41;;;12.32;100.00
66381;BME280;53177;52.648;1.214;2023-06-14T02:08:04;101235.78;;;12.31;100.00
66381;BME280;53177;52.648;1.214;2023-06-14T02:10:29;101242.03;;;12.28;100.00
66381;BME280;53177;52.648;1.214;2023-06-14T02:12:55;101243.75;;;12.31;100.00
66381;BME280;53177;52.648;1.214;2023-06-14T02:15:20;101247.28;;;12.31;100.00
66381;BME280;53177;52.648;1.214;2023-06-14T02:17:47;101240.25;;;12.30;100.00
66381;BME280;53177;52.648;1.214;2023-06-14T02:20:13;101242.91;;;12.29;100.00
66381;BME280;53177;52.648;1.214;2023-06-14T02:22:39;101235.84;;;12.28;100.00
66381;BME280;53177;52.648;1.214;2023-06-14T02:25:05;101242.03;;;12.30;100.00
66381;BME280;53177;52.648;1.214;2023-06-14T02:27:31;101246.47;;;12.28;100.00
66381;BME280;53177;52.648;1.214;2023-06-14T02:29:57;101246.50;;;12.26;100.00
66381;BME280;53177;52.648;1.214;2023-06-14T02:32:22;101253.53;;;12.29;100.00
66381;BME280;53177;52.648;1.214;2023-06-14T02:34:48;101249.31;;;12.18;100.00
66381;BME280;53177;52.648;1.214;2023-06-14T02:37:15;101256.41;;;12.16;100.00
66381;BME280;53177;52.648;1.214;2023-06-14T02:39:41;101246.75;;;12.15;100.00
66381;BME280;53177;52.648;1.214;2023-06-14T02:42:06;101254.63;;;12.18;100.00
66381;BME280;53177;52.648;1.214;2023-06-14T02:44:32;101256.34;;;12.19;100.00
66381;BME280;53177;52.648;1.214;2023-06-14T02:46:57;101255.69;;;12.10;100.00
66381;BME280;53177;52.648;1.214;2023-06-14T02:49:24;101263.72;;;12.05;100.00
66381;BME280;53177;52.648;1.214;2023-06-14T02:51:54;101263.72;;;12.05;100.00
66381;BME280;53177;52.648;1.214;2023-06-14T02:54:22;101260.16;;;12.08;100.00
66381;BME280;53177;52.648;1.214;2023-06-14T02:56:50;101258.41;;;12.05;100.00
66381;BME280;53177;52.648;1.214;2023-06-14T02:59:17;101257.53;;;12.05;100.00
66381;BME280;53177;52.648;1.214;2023-06-14T03:01:46;101257.59;;;12.03;100.00
66381;BME280;53177;52.648;1.214;2023-06-14T03:04:22;101261.13;;;12.02;100.00
66381;BME280;53177;52.648;1.214;2023-06-14T03:06:56;101257.69;;;11.99;100.00
66381;BME280;53177;52.648;1.214;2023-06-14T03:09:22;101259.44;;;12.00;100.00
66381;BME280;53177;52.648;1.214;2023-06-14T03:11:53;101259.44;;;11.98;100.00
66381;BME280;53177;52.648;1.214;2023-06-14T03:14:21;101259.50;;;11.95;100.00
66381;BME280;53177;52.648;1.214;2023-06-14T03:16:47;101255.97;;;11.95;100.00
66381;BME280;53177;52.648;1.214;2023-06-14T03:19:15;101259.50;;;11.95;100.00
66381;BME280;53177;52.648;1.214;2023-06-14T03:21:40;101262.16;;;11.97;100.00
66381;BME280;53177;52.648;1.214;2023-06-14T03:24:09;101270.94;;;11.97;100.00
66381;BME280;53177;52.648;1.214;2023-06-14T03:26:35;101263.88;;;11.98;100.00
66381;BME280;53177;52.648;1.214;2023-06-14T03:29:02;101261.28;;;11.95;100.00
66381;BME280;53177;52.648;1.214;2023-06-14T03:31:29;101262.25;;;11.91;100.00
66381;BME280;53177;52.648;1.214;2023-06-14T03:33:58;101263.97;;;11.93;100.00
66381;BME280;53177;52.648;1.214;2023-06-14T03:36:23;101268.28;;;11.97;100.00
66381;BME280;53177;52.648;1.214;2023-06-14T03:38:48;101267.47;;;11.95;100.00
66381;BME280;53177;52.648;1.214;2023-06-14T03:41:14;101265.69;;;11.96;100.00
66381;BME280;53177;52.648;1.214;2023-06-14T03:43:39;101271.94;;;11.93;100.00
66381;BME280;53177;52.648;1.214;2023-06-14T03:46:05;101264.88;;;11.92;100.00
66381;BME280;53177;52.648;1.214;2023-06-14T03:48:30;101264.03;;;11.90;100.00
66381;BME280;53177;52.648;1.214;2023-06-14T03:50:55;101263.91;;;11.96;100.00
66381;BME280;53177;52.648;1.214;2023-06-14T03:53:21;101270.09;;;11.97;100.00
66381;BME280;53177;52.648;1.214;2023-06-14T03:55:49;101259.44;;;12.00;100.00
66381;BME280;53177;52.648;1.214;2023-06-14T03:58:15;101266.53;;;11.98;100.00
66381;BME280;53177;52.648;1.214;2023-06-14T04:00:41;101265.66;;;11.97;100.00
66381;BME280;53177;52.648;1.214;2023-06-14T04:03:06;101273.66;;;11.96;100.00
66381;BME280;53177;52.648;1.214;2023-06-14T04:05:32;101266.50;;;12.01;100.00
66381;BME280;53177;52.648;1.214;2023-06-14T04:07:57;101264.69;;;12.01;100.00
66381;BME280;53177;52.648;1.214;2023-06-14T04:10:26;101263.72;;;12.05;100.00
66381;BME280;53177;52.648;1.214;2023-06-14T04:12:53;101270.69;;;12.11;100.00
66381;BME280;53177;52.648;1.214;2023-06-14T04:15:18;101260.97;;;12.11;100.00
66381;BME280;53177;52.648;1.214;2023-06-14T04:17:43;101266.19;;;12.14;100.00
66381;BME280;53177;52.648;1.214;2023-06-14T04:20:09;101267.06;;;12.15;100.00
66381;BME280;53177;52.648;1.214;2023-06-14T04:22:36;101273.19;;;12.18;100.00
66381;BME280;53177;52.648;1.214;2023-06-14T04:25:02;101274.88;;;12.23;100.00
66381;BME280;53177;52.648;1.214;2023-06-14T04:27:27;101265.09;;;12.25;100.00
66381;BME280;53177;52.648;1.214;2023-06-14T04:29:56;101271.19;;;12.30;100.00
66381;BME280;53177;52.648;1.214;2023-06-14T04:32:28;101270.25;;;12.31;100.00
66381;BME280;53177;52.648;1.214;2023-06-14T04:34:59;101275.53;;;12.32;100.00
66381;BME280;53177;52.648;1.214;2023-06-14T04:37:27;101274.59;;;12.36;100.00
66381;BME280;53177;52.648;1.214;2023-06-14T04:39:55;101273.63;;;12.40;100.00
66381;BME280;53177;52.648;1.214;2023-06-14T04:42:21;101284.97;;;12.47;100.00
66381;BME280;53177;52.648;1.214;2023-06-14T04:44:51;101289.28;;;12.51;100.00
66381;BME280;53177;52.648;1.214;2023-06-14T04:47:16;101284.72;;;12.57;100.00
66381;BME280;53177;52.648;1.214;2023-06-14T04:49:42;101278.44;;;12.61;100.00
66381;BME280;53177;52.648;1.214;2023-06-14T04:52:07;101274.81;;;12.65;100.00
66381;BME280;53177;52.648;1.214;2023-06-14T04:54:36;101281.78;;;12.71;100.00
66381;BME280;53177;52.648;1.214;2023-06-14T04:57:04;101281.63;;;12.77;100.00
66381;BME280;53177;52.648;1.214;2023-06-14T04:59:29;101291.19;;;12.86;100.00
66381;BME280;53177;52.648;1.214;2023-06-14T05:01:58;101283.94;;;12.92;100.00
66381;BME280;53177;52.648;1.214;2023-06-14T05:04:25;101286.53;;;12.94;100.00
66381;BME280;53177;52.648;1.214;2023-06-14T05:06:52;101284.66;;;12.99;100.00
66381;BME280;53177;52.648;1.214;2023-06-14T05:09:19;101284.50;;;13.06;100.00
66381;BME280;53177;52.648;1.214;2023-06-14T05:11:45;101293.25;;;13.11;100.00
66381;BME280;53177;52.648;1.214;2023-06-14T05:14:11;101291.25;;;13.21;100.00
66381;BME280;53177;52.648;1.214;2023-06-14T05:16:37;101291.16;;;13.24;100.00
66381;BME280;53177;52.648;1.214;2023-06-14T05:19:03;101288.41;;;13.29;100.00
66381;BME280;53177;52.648;1.214;2023-06-14T05:21:29;101290.00;;;13.36;100.00
66381;BME280;53177;52.648;1.214;2023-06-14T05:23:55;101298.75;;;13.39;100.00
66381;BME280;53177;52.648;1.214;2023-06-14T05:26:21;101297.75;;;13.45;100.00
66381;BME280;53177;52.648;1.214;2023-06-14T05:28:49;101292.09;;;13.57;100.00
66381;BME280;53177;52.648;1.214;2023-06-14T05:31:15;101299.06;;;13.62;100.00
66381;BME280;53177;52.648;1.214;2023-06-14T05:33:41;101306.84;;;13.70;100.00
66381;BME280;53177;52.648;1.214;2023-06-14T05:36:06;101305.75;;;13.77;100.00
66381;BME280;53177;52.648;1.214;2023-06-14T05:38:31;101303.78;;;13.85;99.94
66381;BME280;53177;52.648;1.214;2023-06-14T05:40:57;101303.72;;;13.87;100.00
66381;BME280;53177;52.648;1.214;2023-06-14T05:43:22;101306.97;;;13.98;99.80
66381;BME280;53177;52.648;1.214;2023-06-14T05:45:48;101301.50;;;14.04;99.70
66381;BME280;53177;52.648;1.214;2023-06-14T05:48:13;101306.50;;;14.14;99.29
66381;BME280;53177;52.648;1.214;2023-06-14T05:50:38;101308.16;;;14.19;98.65
66381;BME280;53177;52.648;1.214;2023-06-14T05:53:04;101307.88;;;14.29;98.37
66381;BME280;53177;52.648;1.214;2023-06-14T05:55:29;101305.97;;;14.34;98.01
66381;BME280;53177;52.648;1.214;2023-06-14T05:57:55;101307.28;;;14.50;97.12
66381;BME280;53177;52.648;1.214;2023-06-14T06:00:21;101312.28;;;14.61;97.08
66381;BME280;53177;52.648;1.214;2023-06-14T06:02:47;101304.25;;;14.63;96.35
66381;BME280;53177;52.648;1.214;2023-06-14T06:05:13;101307.59;;;14.69;95.52
66381;BME280;53177;52.648;1.214;2023-06-14T06:07:39;101310.84;;;14.79;95.10
66381;BME280;53177;52.648;1.214;2023-06-14T06:10:05;101307.03;;;14.87;94.84
66381;BME280;53177;52.648;1.214;2023-06-14T06:12:31;101308.63;;;14.93;94.74
66381;BME280;53177;52.648;1.214;2023-06-14T06:14:58;101310.34;;;14.95;93.18
66381;BME280;53177;52.648;1.214;2023-06-14T06:17:24;101308.22;;;15.06;92.68
66381;BME280;53177;52.648;1.214;2023-06-14T06:19:50;101319.44;;;15.16;91.89
66381;BME280;53177;52.648;1.214;2023-06-14T06:22:15;101313.06;;;15.22;91.63
66381;BME280;53177;52.648;1.214;2023-06-14T06:24:40;101319.84;;;15.30;91.64
66381;BME280;53177;52.648;1.214;2023-06-14T06:27:06;101326.81;;;15.34;90.60
66381;BME280;53177;52.648;1.214;2023-06-14T06:29:33;101330.00;;;15.45;91.14
66381;BME280;53177;52.648;1.214;2023-06-14T06:32:00;101334.97;;;15.57;90.23
66381;BME280;53177;52.648;1.214;2023-06-14T06:34:25;101328.47;;;15.66;89.29
66381;BME280;53177;52.648;1.214;2023-06-14T06:36:50;101335.25;;;15.76;89.39
66381;BME280;53177;52.648;1.214;2023-06-14T06:39:16;101337.75;;;15.81;88.00
66381;BME280;53177;52.648;1.214;2023-06-14T06:41:41;101336.47;;;15.92;88.19
66381;BME280;53177;52.648;1.214;2023-06-14T06:44:07;101346.03;;;15.98;86.79
66381;BME280;53177;52.648;1.214;2023-06-14T06:46:33;101341.47;;;16.01;85.92
66381;BME280;53177;52.648;1.214;2023-06-14T06:48:59;101339.50;;;16.06;86.54
66381;BME280;53177;52.648;1.214;2023-06-14T06:51:25;101341.91;;;16.14;86.26
66381;BME280;53177;52.648;1.214;2023-06-14T06:53:54;101347.03;;;16.20;84.74
66381;BME280;53177;52.648;1.214;2023-06-14T06:56:20;101343.97;;;16.31;83.42
66381;BME280;53177;52.648;1.214;2023-06-14T06:58:48;101347.38;;;16.34;82.81
66381;BME280;53177;52.648;1.214;2023-06-14T07:01:14;101348.84;;;16.43;82.66
66381;BME280;53177;52.648;1.214;2023-06-14T07:03:39;101360.06;;;16.52;82.43
66381;BME280;53177;52.648;1.214;2023-06-14T07:06:04;101350.22;;;16.54;81.81
66381;BME280;53177;52.648;1.214;2023-06-14T07:08:30;101352.63;;;16.62;82.34
66381;BME280;53177;52.648;1.214;2023-06-14T07:10:55;101356.69;;;16.72;82.57
66381;BME280;53177;52.648;1.214;2023-06-14T07:13:21;101361.75;;;16.80;81.76
66381;BME280;53177;52.648;1.214;2023-06-14T07:15:46;101365.13;;;16.85;80.64
66381;BME280;53177;52.648;1.214;2023-06-14T07:18:12;101367.66;;;16.88;79.52
66381;BME280;53177;52.648;1.214;2023-06-14T07:20:38;101373.81;;;16.90;80.47
66381;BME280;53177;52.648;1.214;2023-06-14T07:23:03;101377.88;;;17.00;79.30
66381;BME280;53177;52.648;1.214;2023-06-14T07:25:29;101377.03;;;16.99;78.97
66381;BME280;53177;52.648;1.214;2023-06-14T07:27:55;101376.78;;;17.06;78.72
66381;BME280;53177;52.648;1.214;2023-06-14T07:30:21;101379.16;;;17.13;78.27
66381;BME280;53177;52.648;1.214;2023-06-14T07:32:51;101371.72;;;17.21;78.01
66381;BME280;53177;52.648;1.214;2023-06-14T07:35:17;101370.00;;;17.19;77.22
66381;BME280;53177;52.648;1.214;2023-06-14T07:37:42;101373.78;;;17.36;78.54
66381;BME280;53177;52.648;1.214;2023-06-14T07:40:08;101373.38;;;17.45;77.40
66381;BME280;53177;52.648;1.214;2023-06-14T07:42:35;101374.59;;;17.60;75.97
66381;BME280;53177;52.648;1.214;2023-06-14T07:45:03;101382.63;;;17.60;76.08
66381;BME280;53177;52.648;1.214;2023-06-14T07:47:29;101379.03;;;17.61;74.92
66381;BME280;53177;52.648;1.214;2023-06-14T07:49:55;101376.34;;;17.61;75.55
66381;BME280;53177;52.648;1.214;2023-06-14T07:52:20;101381.38;;;17.69;75.03
66381;BME280;53177;52.648;1.214;2023-06-14T07:54:46;101377.19;;;17.83;74.56
66381;BME280;53177;52.648;1.214;2023-06-14T07:57:11;101379.88;;;17.83;73.25
66381;BME280;53177;52.648;1.214;2023-06-14T07:59:37;101374.25;;;17.89;72.22
66381;BME280;53177;52.648;1.214;2023-06-14T08:02:02;101389.00;;;17.99;72.26
66381;BME280;53177;52.648;1.214;2023-06-14T08:04:28;101389.53;;;18.08;71.58
66381;BME280;53177;52.648;1.214;2023-06-14T08:06:53;101391.94;;;18.14;71.51
66381;BME280;53177;52.648;1.214;2023-06-14T08:09:19;101385.44;;;18.19;71.30
66381;BME280;53177;52.648;1.214;2023-06-14T08:11:44;101390.09;;;18.36;70.22
66381;BME280;53177;52.648;1.214;2023-06-14T08:14:10;101391.78;;;18.37;69.50
66381;BME280;53177;52.648;1.214;2023-06-14T08:16:36;101391.53;;;18.43;68.83
66381;BME280;53177;52.648;1.214;2023-06-14T08:19:01;101394.72;;;18.53;68.23
66381;BME280;53177;52.648;1.214;2023-06-14T08:21:27;101395.44;;;18.56;67.58
66381;BME280;53177;52.648;1.214;2023-06-14T08:23:54;101402.34;;;18.62;66.91
66381;BME280;53177;52.648;1.214;2023-06-14T08:26:20;101400.31;;;18.67;67.70
66381;BME280;53177;52.648;1.214;2023-06-14T08:28:46;101396.22;;;18.78;67.88
66381;BME280;53177;52.648;1.214;2023-06-14T08:31:11;101403.03;;;18.85;66.58
66381;BME280;53177;52.648;1.214;2023-06-14T08:33:37;101398.91;;;18.97;66.14
66381;BME280;53177;52.648;1.214;2023-06-14T08:36:04;101398.56;;;19.05;64.61
66381;BME280;53177;52.648;1.214;2023-06-14T08:38:29;101399.13;;;19.11;65.49
66381;BME280;53177;52.648;1.214;2023-06-14T08:40:57;101397.47;;;19.27;65.43
66381;BME280;53177;52.648;1.214;2023-06-14T08:43:22;101397.69;;;19.60;64.63
66381;BME280;53177;52.648;1.214;2023-06-14T08:45:48;101394.25;;;19.92;63.29
66381;BME280;53177;52.648;1.214;2023-06-14T08:48:19;101394.03;;;19.80;61.24
66381;BME280;53177;52.648;1.214;2023-06-14T08:50:46;101390.25;;;20.01;61.61
66381;BME280;53177;52.648;1.214;2023-06-14T08:53:14;101395.69;;;20.00;61.63
66381;BME280;53177;52.648;1.214;2023-06-14T08:55:45;101387.06;;;20.10;61.85
66381;BME280;53177;52.648;1.214;2023-06-14T08:58:11;101388.19;;;20.06;61.50
66381;BME280;53177;52.648;1.214;2023-06-14T09:00:40;101388.47;;;20.36;60.80
66381;BME280;53177;52.648;1.214;2023-06-14T09:03:07;101385.28;;;20.78;60.97
66381;BME280;53177;52.648;1.214;2023-06-14T09:05:38;101382.69;;;20.76;60.81
66381;BME280;53177;52.648;1.214;2023-06-14T09:08:04;101387.56;;;20.85;59.56
66381;BME280;53177;52.648;1.214;2023-06-14T09:10:31;101378.03;;;20.80;59.80
66381;BME280;53177;52.648;1.214;2023-06-14T09:13:00;101390.69;;;20.94;59.72
66381;BME280;53177;52.648;1.214;2023-06-14T09:15:26;101400.75;;;21.23;60.22
66381;BME280;53177;52.648;1.214;2023-06-14T09:17:51;101394.09;;;20.97;58.96
66381;BME280;53177;52.648;1.214;2023-06-14T09:20:17;101400.88;;;21.04;59.37
66381;BME280;53177;52.648;1.214;2023-06-14T09:22:44;101395.78;;;21.15;57.72
66381;BME280;53177;52.648;1.214;2023-06-14T09:25:10;101401.00;;;21.34;58.60
66381;BME280;53177;52.648;1.214;2023-06-14T09:27:37;101398.91;;;21.55;60.10
66381;BME280;53177;52.648;1.214;2023-06-14T09:30:06;101403.84;;;21.94;59.01
66381;BME280;53177;52.648;1.214;2023-06-14T09:32:38;101403.06;;;21.92;56.53
66381;BME280;53177;52.648;1.214;2023-06-14T09:35:06;101400.34;;;22.07;57.09
66381;BME280;53177;52.648;1.214;2023-06-14T09:37:32;101403.66;;;22.26;59.05
66381;BME280;53177;52.648;1.214;2023-06-14T09:39:58;101406.84;;;22.33;61.35
66381;BME280;53177;52.648;1.214;2023-06-14T09:42:24;101413.34;;;22.15;57.03
66381;BME280;53177;52.648;1.214;2023-06-14T09:44:52;101411.53;;;22.15;57.34
66381;BME280;53177;52.648;1.214;2023-06-14T09:47:18;101416.19;;;21.98;57.31
66381;BME280;53177;52.648;1.214;2023-06-14T09:49:44;101415.03;;;21.86;57.35
66381;BME280;53177;52.648;1.214;2023-06-14T09:52:19;101412.00;;;21.92;57.30
66381;BME280;53177;52.648;1.214;2023-06-14T09:54:46;101414.88;;;22.05;55.18
66381;BME280;53177;52.648;1.214;2023-06-14T09:57:17;101415.13;;;22.30;56.31
66381;BME280;53177;52.648;1.214;2023-06-14T09:59:46;101419.59;;;22.75;55.33
66381;BME280;53177;52.648;1.214;2023-06-14T10:02:29;101413.22;;;22.90;54.95
66381;BME280;53177;52.648;1.214;2023-06-14T10:05:08;101408.50;;;22.79;55.02
66381;BME280;53177;52.648;1.214;2023-06-14T10:10:06;101416.41;;;22.68;54.02
66381;BME280;53177;52.648;1.214;2023-06-14T10:12:32;101414.13;;;22.47;55.64
66381;BME280;53177;52.648;1.214;2023-06-14T10:14:58;101422.94;;;22.78;55.08
66381;BME280;53177;52.648;1.214;2023-06-14T10:17:47;101414.06;;;22.76;54.75
66381;BME280;53177;52.648;1.214;2023-06-14T10:20:26;101418.56;;;22.62;53.55
66381;BME280;53177;52.648;1.214;2023-06-14T10:25:30;101413.28;;;22.60;52.55
66381;BME280;53177;52.648;1.214;2023-06-14T10:28:04;101417.44;;;22.36;53.79
66381;BME280;53177;52.648;1.214;2023-06-14T10:30:39;101413.22;;;22.76;53.58
66381;BME280;53177;52.648;1.214;2023-06-14T10:33:08;101416.50;;;22.37;53.68
66381;BME280;53177;52.648;1.214;2023-06-14T10:35:34;101403.91;;;22.66;52.08
66381;BME280;53177;52.648;1.214;2023-06-14T10:38:11;101414.22;;;22.59;51.44
66381;BME280;53177;52.648;1.214;2023-06-14T10:40:38;101419.66;;;22.73;51.46
66381;BME280;53177;52.648;1.214;2023-06-14T10:43:23;101422.00;;;22.94;51.07
66381;BME280;53177;52.648;1.214;2023-06-14T10:46:14;101418.72;;;22.74;51.91
66381;BME280;53177;52.648;1.214;2023-06-14T10:48:41;101412.06;;;23.08;51.22
66381;BME280;53177;52.648;1.214;2023-06-14T10:51:15;101415.72;;;23.07;50.21
66381;BME280;53177;52.648;1.214;2023-06-14T10:53:45;101416.09;;;23.29;51.31
66381;BME280;53177;52.648;1.214;2023-06-14T10:56:26;101415.16;;;23.16;50.63
66381;BME280;53177;52.648;1.214;2023-06-14T10:58:52;101417.88;;;24.11;50.87
66381;BME280;53177;52.648;1.214;2023-06-14T11:01:36;101417.94;;;24.23;48.92
66381;BME280;53177;52.648;1.214;2023-06-14T11:04:09;101420.97;;;24.19;52.06
66381;BME280;53177;52.648;1.214;2023-06-14T11:06:45;101414.38;;;23.69;48.38
66381;BME280;53177;52.648;1.214;2023-06-14T11:09:45;101410.16;;;24.19;47.79
66381;BME280;53177;52.648;1.214;2023-06-14T11:12:14;101408.53;;;23.90;48.41
66381;BME280;53177;52.648;1.214;2023-06-14T11:14:40;101415.81;;;24.54;47.75
66381;BME280;53177;52.648;1.214;2023-06-14T11:17:06;101408.75;;;24.26;48.15
66381;BME280;53177;52.648;1.214;2023-06-14T11:19:31;101413.88;;;24.56;48.63
66381;BME280;53177;52.648;1.214;2023-06-14T11:21:57;101412.16;;;24.42;47.44
66381;BME280;53177;52.648;1.214;2023-06-14T11:24:22;101406.63;;;24.56;46.57
66381;BME280;53177;52.648;1.214;2023-06-14T11:26:49;101407.81;;;24.78;42.17
66381;BME280;53177;52.648;1.214;2023-06-14T11:29:15;101403.09;;;24.94;44.12
66381;BME280;53177;52.648;1.214;2023-06-14T11:31:44;101402.50;;;25.27;45.77
66381;BME280;53177;52.648;1.214;2023-06-14T11:34:13;101404.81;;;25.44;43.07
66381;BME280;53177;52.648;1.214;2023-06-14T11:36:39;101409.19;;;25.21;42.35
66381;BME280;53177;52.648;1.214;2023-06-14T11:39:06;101404.50;;;24.87;41.32
66381;BME280;53177;52.648;1.214;2023-06-14T11:41:42;101402.44;;;25.39;44.78
66381;BME280;53177;52.648;1.214;2023-06-14T11:44:08;101396.50;;;25.94;42.20
66381;BME280;53177;52.648;1.214;2023-06-14T11:46:34;101406.59;;;25.92;45.81
66381;BME280;53177;52.648;1.214;2023-06-14T11:48:59;101411.44;;;25.40;42.22
66381;BME280;53177;52.648;1.214;2023-06-14T11:51:29;101403.59;;;25.11;44.83
66381;BME280;53177;52.648;1.214;2023-06-14T11:53:55;101418.19;;;24.58;44.79
66381;BME280;53177;52.648;1.214;2023-06-14T11:56:20;101404.09;;;24.28;46.44
66381;BME280;53177;52.648;1.214;2023-06-14T11:58:46;101409.31;;;24.44;47.31
66381;BME280;53177;52.648;1.214;2023-06-14T12:01:17;101404.47;;;24.61;46.04
66381;BME280;53177;52.648;1.214;2023-06-14T12:03:50;101409.97;;;24.72;44.57
66381;BME280;53177;52.648;1.214;2023-06-14T12:06:16;101420.91;;;25.22;42.46
66381;BME280;53177;52.648;1.214;2023-06-14T12:08:43;101413.78;;;24.70;43.15
66381;BME280;53177;52.648;1.214;2023-06-14T12:11:12;101417.38;;;24.83;44.42
66381;BME280;53177;52.648;1.214;2023-06-14T12:13:39;101411.31;;;25.54;44.33
66381;BME280;53177;52.648;1.214;2023-06-14T12:16:11;101411.59;;;25.13;44.14
66381;BME280;53177;52.648;1.214;2023-06-14T12:18:38;101413.72;;;25.33;41.44
66381;BME280;53177;52.648;1.214;2023-06-14T12:21:07;101421.69;;;25.11;41.25
66381;BME280;53177;52.648;1.214;2023-06-14T12:23:49;101411.75;;;24.86;42.12
66381;BME280;53177;52.648;1.214;2023-06-14T12:26:17;101416.91;;;24.51;42.59
66381;BME280;53177;52.648;1.214;2023-06-14T12:28:44;101422.63;;;24.34;42.57
66381;BME280;53177;52.648;1.214;2023-06-14T12:31:11;101414.59;;;24.20;42.97
66381;BME280;53177;52.648;1.214;2023-06-14T12:33:37;101414.97;;;24.91;48.24
66381;BME280;53177;52.648;1.214;2023-06-14T12:36:04;101413.34;;;25.14;43.50
66381;BME280;53177;52.648;1.214;2023-06-14T12:38:30;101418.84;;;25.25;41.64
66381;BME280;53177;52.648;1.214;2023-06-14T12:40:55;101409.69;;;24.12;42.97
66381;BME280;53177;52.648;1.214;2023-06-14T12:43:21;101415.50;;;24.46;43.95
66381;BME280;53177;52.648;1.214;2023-06-14T12:45:46;101411.25;;;24.16;43.15
66381;BME280;53177;52.648;1.214;2023-06-14T12:48:11;101408.25;;;23.80;43.36
66381;BME280;53177;52.648;1.214;2023-06-14T12:50:37;101407.63;;;24.68;46.16
66381;BME280;53177;52.648;1.214;2023-06-14T12:53:02;101403.50;;;25.49;51.63
66381;BME280;53177;52.648;1.214;2023-06-14T12:55:27;101413.38;;;25.01;41.41